الصفحة الرئيسية
METAR-TAF:

مطار :

سكاكا, السعودية

مطار الجوف المحلي

دائرة عرض: 29-47N, خط طول: 040-06E, ارتفاع: 689 متر

مراقبة الطقس الحالي

تاريخ ووقت الإصدار 2ساعات و 5 دقيقة قبل الساعة 12:00UTC
ريح 6 عقدة من الغرب
درجة الحرارة 34°درجة مئوية
الرطوبة 11%
ضغط 1015 hPa
الرؤية 10 كم أو أكثر
الغيوم لا تقل 1500 م ولا وجود لمزنة ركامية السحاب الأسود

METAR: OESK 311200Z 26006KT CAVOK 34/00 Q1015 NOSIG

زمن: 17:05 (14:05 UTC)

توقعات

تاريخ ووقت الإصدار 3ساعات و 35 دقيقة قبل الساعة 10:30UTC
التوقعات صالحة من31 الساعة 12 UTC إلى 01 الساعة 18 UTC
ريح 9 عقدة من الشمال الشرقي
الرؤية 10 كم أو أكثر
الغيوم لا تقل 1500 م ولا وجود لمزنة ركامية السحاب الأسود
أصبح
من 31 الساعة 18 UTC إلى 31 الساعة 20 UTC
ريح 3 عقدةمن اتجاهات متغيرة

TAF: OESK 311030Z 3112/0118 04009KT CAVOK BECMG 3118/3120 VRB03KT

METAR-TAF

أرصاد الطقس والتوقعات من أكثر من 4000 مطار (تقارير الطقس للمطار METAR والتنبؤ بالطقس بالمطارTAF).

المحطات المتاحة هي النقط الصفراء والحمراء على الخريطة.

حرك المؤشر فوق النقطة لمعرفة اسم المحطة.

ثم انقر لمعرفة أرصاد وتوقعات الطقس.

لتغيير الخارطة: اضغط على الأزرار الخضراء مع رمز الصليب الأسود للتكبير. على الزر الأخضر مع شرطة للتصغير، أو على الأسهم الخضراء للخرائط المجاورة.


METAR-TAF: